sensor_id;sensor_type;location;lat;lon;timestamp;P1;durP1;ratioP1;P2;durP2;ratioP2
4021;SDS011;2025;48.260;16.432;2024-03-23T00:51:21;10.13;;;4.45;;
4021;SDS011;2025;48.260;16.432;2024-03-23T00:53:48;11.48;;;4.43;;
4021;SDS011;2025;48.260;16.432;2024-03-23T00:56:15;10.98;;;4.70;;
4021;SDS011;2025;48.260;16.432;2024-03-23T00:58:41;11.23;;;4.28;;
4021;SDS011;2025;48.260;16.432;2024-03-23T01:01:08;11.55;;;4.45;;
4021;SDS011;2025;48.260;16.432;2024-03-23T01:03:34;10.45;;;4.65;;
4021;SDS011;2025;48.260;16.432;2024-03-23T01:06:02;14.20;;;4.68;;
4021;SDS011;2025;48.260;16.432;2024-03-23T01:08:30;12.70;;;7.60;;
4021;SDS011;2025;48.260;16.432;2024-03-23T01:10:57;11.40;;;5.13;;
4021;SDS011;2025;48.260;16.432;2024-03-23T01:13:24;13.85;;;6.75;;
4021;SDS011;2025;48.260;16.432;2024-03-23T01:15:51;11.40;;;5.07;;
4021;SDS011;2025;48.260;16.432;2024-03-23T01:18:18;12.77;;;5.00;;
4021;SDS011;2025;48.260;16.432;2024-03-23T01:20:45;11.65;;;4.93;;
4021;SDS011;2025;48.260;16.432;2024-03-23T01:23:11;12.40;;;5.22;;
4021;SDS011;2025;48.260;16.432;2024-03-23T01:25:40;10.30;;;4.50;;
4021;SDS011;2025;48.260;16.432;2024-03-23T01:28:06;11.02;;;5.03;;
4021;SDS011;2025;48.260;16.432;2024-03-23T01:30:34;15.30;;;4.80;;
4021;SDS011;2025;48.260;16.432;2024-03-23T01:33:00;13.60;;;8.02;;
4021;SDS011;2025;48.260;16.432;2024-03-23T01:35:28;13.23;;;5.63;;
4021;SDS011;2025;48.260;16.432;2024-03-23T01:37:54;13.10;;;4.93;;
4021;SDS011;2025;48.260;16.432;2024-03-23T01:40:21;9.68;;;4.78;;
4021;SDS011;2025;48.260;16.432;2024-03-23T01:42:58;10.18;;;4.47;;
4021;SDS011;2025;48.260;16.432;2024-03-23T01:45:29;12.57;;;4.63;;
4021;SDS011;2025;48.260;16.432;2024-03-23T01:50:23;12.38;;;4.72;;
4021;SDS011;2025;48.260;16.432;2024-03-23T01:52:49;10.90;;;4.85;;
4021;SDS011;2025;48.260;16.432;2024-03-23T01:55:17;10.57;;;4.68;;
4021;SDS011;2025;48.260;16.432;2024-03-23T01:57:43;13.13;;;4.38;;
4021;SDS011;2025;48.260;16.432;2024-03-23T02:00:12;12.35;;;4.90;;
4021;SDS011;2025;48.260;16.432;2024-03-23T02:02:41;9.93;;;4.72;;
4021;SDS011;2025;48.260;16.432;2024-03-23T02:05:09;11.23;;;4.80;;
4021;SDS011;2025;48.260;16.432;2024-03-23T02:07:36;11.32;;;4.82;;
4021;SDS011;2025;48.260;16.432;2024-03-23T02:10:04;9.18;;;4.35;;
4021;SDS011;2025;48.260;16.432;2024-03-23T02:12:31;15.02;;;5.75;;
4021;SDS011;2025;48.260;16.432;2024-03-23T02:14:58;11.38;;;4.43;;
4021;SDS011;2025;48.260;16.432;2024-03-23T02:17:26;9.20;;;4.38;;
4021;SDS011;2025;48.260;16.432;2024-03-23T02:19:53;10.73;;;5.00;;
4021;SDS011;2025;48.260;16.432;2024-03-23T02:22:19;10.65;;;4.75;;
4021;SDS011;2025;48.260;16.432;2024-03-23T02:24:47;11.63;;;4.85;;
4021;SDS011;2025;48.260;16.432;2024-03-23T02:27:13;11.88;;;5.15;;
4021;SDS011;2025;48.260;16.432;2024-03-23T02:29:41;11.82;;;5.03;;
4021;SDS011;2025;48.260;16.432;2024-03-23T02:32:06;10.98;;;4.65;;
4021;SDS011;2025;48.260;16.432;2024-03-23T02:34:35;11.57;;;5.47;;
4021;SDS011;2025;48.260;16.432;2024-03-23T02:37:01;10.85;;;4.28;;
4021;SDS011;2025;48.260;16.432;2024-03-23T02:39:28;11.52;;;4.53;;
4021;SDS011;2025;48.260;16.432;2024-03-23T02:41:55;11.02;;;4.22;;
4021;SDS011;2025;48.260;16.432;2024-03-23T02:44:22;10.68;;;4.57;;
4021;SDS011;2025;48.260;16.432;2024-03-23T02:46:48;10.20;;;5.18;;
4021;SDS011;2025;48.260;16.432;2024-03-23T02:49:15;12.27;;;5.00;;
4021;SDS011;2025;48.260;16.432;2024-03-23T02:51:41;11.27;;;4.50;;
4021;SDS011;2025;48.260;16.432;2024-03-23T02:54:10;12.93;;;4.78;;
4021;SDS011;2025;48.260;16.432;2024-03-23T02:56:36;11.02;;;4.63;;
4021;SDS011;2025;48.260;16.432;2024-03-23T02:59:05;10.30;;;3.90;;
4021;SDS011;2025;48.260;16.432;2024-03-23T03:01:30;11.05;;;5.13;;
4021;SDS011;2025;48.260;16.432;2024-03-23T03:03:58;12.10;;;5.13;;
4021;SDS011;2025;48.260;16.432;2024-03-23T03:06:24;13.25;;;4.90;;
4021;SDS011;2025;48.260;16.432;2024-03-23T03:08:51;12.65;;;4.88;;
4021;SDS011;2025;48.260;16.432;2024-03-23T03:11:17;9.50;;;4.53;;
4021;SDS011;2025;48.260;16.432;2024-03-23T03:13:44;10.43;;;4.80;;
4021;SDS011;2025;48.260;16.432;2024-03-23T03:16:12;9.88;;;4.05;;
4021;SDS011;2025;48.260;16.432;2024-03-23T03:18:39;11.25;;;4.57;;
4021;SDS011;2025;48.260;16.432;2024-03-23T03:21:05;10.38;;;4.43;;
4021;SDS011;2025;48.260;16.432;2024-03-23T03:23:36;9.50;;;4.30;;
4021;SDS011;2025;48.260;16.432;2024-03-23T03:26:02;10.25;;;3.70;;
4021;SDS011;2025;48.260;16.432;2024-03-23T03:28:29;10.20;;;4.28;;
4021;SDS011;2025;48.260;16.432;2024-03-23T03:30:56;9.93;;;4.57;;
4021;SDS011;2025;48.260;16.432;2024-03-23T03:33:25;11.85;;;4.72;;
4021;SDS011;2025;48.260;16.432;2024-03-23T03:35:51;11.05;;;4.47;;
4021;SDS011;2025;48.260;16.432;2024-03-23T03:38:19;13.02;;;4.88;;
4021;SDS011;2025;48.260;16.432;2024-03-23T03:43:12;11.43;;;4.28;;
4021;SDS011;2025;48.260;16.432;2024-03-23T03:45:38;12.18;;;4.68;;
4021;SDS011;2025;48.260;16.432;2024-03-23T03:48:05;12.38;;;5.07;;
4021;SDS011;2025;48.260;16.432;2024-03-23T03:50:33;11.48;;;4.65;;
4021;SDS011;2025;48.260;16.432;2024-03-23T03:53:01;11.43;;;4.97;;
4021;SDS011;2025;48.260;16.432;2024-03-23T03:55:27;13.65;;;4.55;;
4021;SDS011;2025;48.260;16.432;2024-03-23T03:57:54;12.18;;;5.07;;
4021;SDS011;2025;48.260;16.432;2024-03-23T04:00:20;10.85;;;4.63;;
4021;SDS011;2025;48.260;16.432;2024-03-23T04:02:47;8.73;;;4.18;;
4021;SDS011;2025;48.260;16.432;2024-03-23T04:05:13;12.32;;;5.05;;
4021;SDS011;2025;48.260;16.432;2024-03-23T04:07:41;11.27;;;4.82;;
4021;SDS011;2025;48.260;16.432;2024-03-23T04:10:08;11.95;;;5.30;;
4021;SDS011;2025;48.260;16.432;2024-03-23T04:12:35;12.60;;;5.30;;
4021;SDS011;2025;48.260;16.432;2024-03-23T04:15:01;15.02;;;5.80;;
4021;SDS011;2025;48.260;16.432;2024-03-23T04:17:30;10.57;;;4.50;;
4021;SDS011;2025;48.260;16.432;2024-03-23T04:19:57;11.27;;;4.93;;
4021;SDS011;2025;48.260;16.432;2024-03-23T04:22:24;12.18;;;5.00;;
4021;SDS011;2025;48.260;16.432;2024-03-23T04:24:53;12.98;;;4.95;;
4021;SDS011;2025;48.260;16.432;2024-03-23T04:27:21;13.02;;;5.25;;
4021;SDS011;2025;48.260;16.432;2024-03-23T04:29:47;13.05;;;6.15;;
4021;SDS011;2025;48.260;16.432;2024-03-23T04:32:15;13.30;;;7.07;;
4021;SDS011;2025;48.260;16.432;2024-03-23T04:34:41;11.18;;;5.20;;
4021;SDS011;2025;48.260;16.432;2024-03-23T04:37:09;10.25;;;4.50;;
4021;SDS011;2025;48.260;16.432;2024-03-23T04:39:37;10.73;;;4.80;;
4021;SDS011;2025;48.260;16.432;2024-03-23T04:42:06;10.35;;;5.18;;
4021;SDS011;2025;48.260;16.432;2024-03-23T04:44:33;10.48;;;4.63;;
4021;SDS011;2025;48.260;16.432;2024-03-23T04:47:00;12.00;;;5.38;;
4021;SDS011;2025;48.260;16.432;2024-03-23T04:49:28;14.82;;;4.97;;
4021;SDS011;2025;48.260;16.432;2024-03-23T04:51:55;11.32;;;4.97;;
4021;SDS011;2025;48.260;16.432;2024-03-23T04:54:22;10.93;;;4.53;;
4021;SDS011;2025;48.260;16.432;2024-03-23T04:56:49;11.70;;;5.05;;
4021;SDS011;2025;48.260;16.432;2024-03-23T04:59:17;11.88;;;4.70;;
4021;SDS011;2025;48.260;16.432;2024-03-23T05:01:43;11.50;;;4.78;;
4021;SDS011;2025;48.260;16.432;2024-03-23T05:04:10;10.63;;;5.18;;
4021;SDS011;2025;48.260;16.432;2024-03-23T05:06:36;11.70;;;4.60;;
4021;SDS011;2025;48.260;16.432;2024-03-23T05:09:03;11.52;;;4.80;;
4021;SDS011;2025;48.260;16.432;2024-03-23T05:11:31;12.60;;;6.63;;
4021;SDS011;2025;48.260;16.432;2024-03-23T05:13:58;12.35;;;5.18;;
4021;SDS011;2025;48.260;16.432;2024-03-23T05:16:27;13.50;;;5.35;;
4021;SDS011;2025;48.260;16.432;2024-03-23T05:18:53;12.35;;;4.78;;
4021;SDS011;2025;48.260;16.432;2024-03-23T05:21:20;13.38;;;5.75;;
4021;SDS011;2025;48.260;16.432;2024-03-23T05:23:46;11.75;;;5.03;;
4021;SDS011;2025;48.260;16.432;2024-03-23T05:26:13;11.23;;;4.75;;
4021;SDS011;2025;48.260;16.432;2024-03-23T05:28:39;12.90;;;5.40;;
4021;SDS011;2025;48.260;16.432;2024-03-23T05:31:06;13.35;;;6.38;;
4021;SDS011;2025;48.260;16.432;2024-03-23T05:33:35;13.63;;;5.30;;
4021;SDS011;2025;48.260;16.432;2024-03-23T05:36:04;11.50;;;5.18;;
4021;SDS011;2025;48.260;16.432;2024-03-23T05:38:30;15.45;;;5.45;;
4021;SDS011;2025;48.260;16.432;2024-03-23T05:40:58;12.98;;;4.93;;
4021;SDS011;2025;48.260;16.432;2024-03-23T05:43:25;12.35;;;5.53;;
4021;SDS011;2025;48.260;16.432;2024-03-23T05:45:54;15.70;;;5.97;;
4021;SDS011;2025;48.260;16.432;2024-03-23T05:48:20;13.98;;;5.82;;
4021;SDS011;2025;48.260;16.432;2024-03-23T05:50:48;11.80;;;5.07;;
4021;SDS011;2025;48.260;16.432;2024-03-23T05:53:15;12.90;;;5.88;;
4021;SDS011;2025;48.260;16.432;2024-03-23T05:55:42;14.32;;;5.57;;
4021;SDS011;2025;48.260;16.432;2024-03-23T05:58:08;14.70;;;6.13;;
4021;SDS011;2025;48.260;16.432;2024-03-23T06:00:36;13.27;;;5.68;;
4021;SDS011;2025;48.260;16.432;2024-03-23T06:03:02;15.95;;;6.32;;
4021;SDS011;2025;48.260;16.432;2024-03-23T06:05:29;14.38;;;5.97;;
4021;SDS011;2025;48.260;16.432;2024-03-23T06:07:57;15.88;;;6.40;;
4021;SDS011;2025;48.260;16.432;2024-03-23T06:10:24;11.02;;;5.55;;
4021;SDS011;2025;48.260;16.432;2024-03-23T06:12:50;11.75;;;5.30;;
4021;SDS011;2025;48.260;16.432;2024-03-23T06:15:17;14.20;;;7.63;;
4021;SDS011;2025;48.260;16.432;2024-03-23T06:17:43;14.57;;;5.30;;
4021;SDS011;2025;48.260;16.432;2024-03-23T06:20:10;11.95;;;5.05;;
4021;SDS011;2025;48.260;16.432;2024-03-23T06:22:36;13.98;;;5.65;;
4021;SDS011;2025;48.260;16.432;2024-03-23T06:25:05;12.65;;;5.53;;
4021;SDS011;2025;48.260;16.432;2024-03-23T06:27:32;11.20;;;5.45;;
4021;SDS011;2025;48.260;16.432;2024-03-23T06:29:59;12.85;;;4.82;;
4021;SDS011;2025;48.260;16.432;2024-03-23T06:32:26;14.02;;;5.45;;
4021;SDS011;2025;48.260;16.432;2024-03-23T06:34:54;12.13;;;4.93;;
4021;SDS011;2025;48.260;16.432;2024-03-23T06:37:20;11.35;;;4.93;;
4021;SDS011;2025;48.260;16.432;2024-03-23T06:39:47;10.77;;;4.55;;
4021;SDS011;2025;48.260;16.432;2024-03-23T06:42:15;10.75;;;4.95;;
4021;SDS011;2025;48.260;16.432;2024-03-23T06:44:42;11.02;;;4.88;;
4021;SDS011;2025;48.260;16.432;2024-03-23T06:47:09;10.80;;;4.68;;
4021;SDS011;2025;48.260;16.432;2024-03-23T06:49:36;10.75;;;4.85;;
4021;SDS011;2025;48.260;16.432;2024-03-23T06:52:02;10.32;;;4.18;;
4021;SDS011;2025;48.260;16.432;2024-03-23T06:54:29;11.02;;;4.75;;
4021;SDS011;2025;48.260;16.432;2024-03-23T06:56:55;9.15;;;4.68;;
4021;SDS011;2025;48.260;16.432;2024-03-23T06:59:24;9.90;;;3.90;;
4021;SDS011;2025;48.260;16.432;2024-03-23T07:01:50;10.40;;;4.07;;
4021;SDS011;2025;48.260;16.432;2024-03-23T07:04:17;10.35;;;3.92;;
4021;SDS011;2025;48.260;16.432;2024-03-23T07:06:44;11.52;;;4.22;;
4021;SDS011;2025;48.260;16.432;2024-03-23T07:09:11;9.10;;;3.97;;
4021;SDS011;2025;48.260;16.432;2024-03-23T07:11:37;9.18;;;3.67;;
4021;SDS011;2025;48.260;16.432;2024-03-23T07:14:04;8.88;;;3.80;;
4021;SDS011;2025;48.260;16.432;2024-03-23T07:16:32;9.98;;;3.67;;
4021;SDS011;2025;48.260;16.432;2024-03-23T07:18:59;7.85;;;3.80;;
4021;SDS011;2025;48.260;16.432;2024-03-23T07:21:25;9.07;;;3.83;;
4021;SDS011;2025;48.260;16.432;2024-03-23T07:23:52;9.82;;;4.03;;
4021;SDS011;2025;48.260;16.432;2024-03-23T07:26:18;8.80;;;3.95;;
4021;SDS011;2025;48.260;16.432;2024-03-23T07:28:45;9.38;;;3.70;;
4021;SDS011;2025;48.260;16.432;2024-03-23T07:31:12;7.32;;;3.63;;
4021;SDS011;2025;48.260;16.432;2024-03-23T07:33:44;10.20;;;4.45;;
4021;SDS011;2025;48.260;16.432;2024-03-23T07:36:11;7.55;;;4.53;;
4021;SDS011;2025;48.260;16.432;2024-03-23T07:38:40;8.48;;;3.38;;
4021;SDS011;2025;48.260;16.432;2024-03-23T07:41:06;9.73;;;3.88;;
4021;SDS011;2025;48.260;16.432;2024-03-23T07:43:35;8.82;;;3.45;;
4021;SDS011;2025;48.260;16.432;2024-03-23T07:46:01;9.80;;;3.42;;
4021;SDS011;2025;48.260;16.432;2024-03-23T07:48:30;12.13;;;4.03;;
4021;SDS011;2025;48.260;16.432;2024-03-23T07:51:01;8.82;;;3.53;;
4021;SDS011;2025;48.260;16.432;2024-03-23T07:58:27;10.32;;;3.70;;
4021;SDS011;2025;48.260;16.432;2024-03-23T08:00:55;8.90;;;3.80;;
4021;SDS011;2025;48.260;16.432;2024-03-23T08:03:22;8.30;;;3.70;;
4021;SDS011;2025;48.260;16.432;2024-03-23T08:05:50;8.73;;;3.47;;
4021;SDS011;2025;48.260;16.432;2024-03-23T08:10:47;10.63;;;3.45;;
4021;SDS011;2025;48.260;16.432;2024-03-23T08:13:14;9.77;;;4.05;;
4021;SDS011;2025;48.260;16.432;2024-03-23T08:15:41;10.05;;;3.63;;
4021;SDS011;2025;48.260;16.432;2024-03-23T08:18:07;9.23;;;4.20;;
4021;SDS011;2025;48.260;16.432;2024-03-23T08:20:35;8.90;;;3.60;;
4021;SDS011;2025;48.260;16.432;2024-03-23T08:23:01;8.93;;;3.53;;
4021;SDS011;2025;48.260;16.432;2024-03-23T08:25:32;11.63;;;4.25;;
4021;SDS011;2025;48.260;16.432;2024-03-23T08:27:58;9.57;;;3.42;;
4021;SDS011;2025;48.260;16.432;2024-03-23T08:30:25;10.27;;;3.33;;
4021;SDS011;2025;48.260;16.432;2024-03-23T08:32:51;8.73;;;3.42;;
4021;SDS011;2025;48.260;16.432;2024-03-23T08:35:18;8.25;;;3.35;;
4021;SDS011;2025;48.260;16.432;2024-03-23T08:37:45;9.57;;;3.83;;
4021;SDS011;2025;48.260;16.432;2024-03-23T08:40:12;11.15;;;3.15;;
4021;SDS011;2025;48.260;16.432;2024-03-23T08:42:39;7.60;;;3.30;;
4021;SDS011;2025;48.260;16.432;2024-03-23T08:45:07;7.60;;;2.97;;
4021;SDS011;2025;48.260;16.432;2024-03-23T08:47:34;8.77;;;2.95;;
4021;SDS011;2025;48.260;16.432;2024-03-23T08:50:02;7.25;;;2.40;;
4021;SDS011;2025;48.260;16.432;2024-03-23T08:54:55;6.68;;;2.80;;
4021;SDS011;2025;48.260;16.432;2024-03-23T08:57:21;6.50;;;3.10;;
4021;SDS011;2025;48.260;16.432;2024-03-23T08:59:50;5.70;;;2.10;;
4021;SDS011;2025;48.260;16.432;2024-03-23T09:02:16;6.15;;;2.55;;
4021;SDS011;2025;48.260;16.432;2024-03-23T09:04:44;6.15;;;2.55;;
4021;SDS011;2025;48.260;16.432;2024-03-23T09:07:10;5.82;;;1.90;;
4021;SDS011;2025;48.260;16.432;2024-03-23T09:09:38;7.28;;;2.38;;
4021;SDS011;2025;48.260;16.432;2024-03-23T09:12:04;6.18;;;2.83;;
4021;SDS011;2025;48.260;16.432;2024-03-23T09:14:32;7.72;;;3.55;;
4021;SDS011;2025;48.260;16.432;2024-03-23T09:17:00;6.78;;;2.45;;
4021;SDS011;2025;48.260;16.432;2024-03-23T09:19:27;6.75;;;2.13;;
4021;SDS011;2025;48.260;16.432;2024-03-23T09:21:54;6.22;;;1.80;;
4021;SDS011;2025;48.260;16.432;2024-03-23T09:24:21;6.10;;;1.73;;
4021;SDS011;2025;48.260;16.432;2024-03-23T09:29:14;5.13;;;1.33;;
4021;SDS011;2025;48.260;16.432;2024-03-23T09:31:40;6.05;;;1.60;;
4021;SDS011;2025;48.260;16.432;2024-03-23T09:34:08;5.32;;;1.42;;
4021;SDS011;2025;48.260;16.432;2024-03-23T09:36:34;4.43;;;1.20;;
4021;SDS011;2025;48.260;16.432;2024-03-23T09:39:02;4.22;;;1.17;;
4021;SDS011;2025;48.260;16.432;2024-03-23T09:41:29;5.22;;;1.02;;
4021;SDS011;2025;48.260;16.432;2024-03-23T09:43:56;5.53;;;1.00;;
4021;SDS011;2025;48.260;16.432;2024-03-23T09:46:22;3.95;;;0.90;;
4021;SDS011;2025;48.260;16.432;2024-03-23T09:48:49;4.60;;;0.80;;
4021;SDS011;2025;48.260;16.432;2024-03-23T09:51:16;3.70;;;0.70;;
4021;SDS011;2025;48.260;16.432;2024-03-23T09:53:44;4.70;;;0.80;;
4021;SDS011;2025;48.260;16.432;2024-03-23T09:58:36;3.85;;;0.77;;
4021;SDS011;2025;48.260;16.432;2024-03-23T10:01:02;3.80;;;0.60;;
4021;SDS011;2025;48.260;16.432;2024-03-23T10:03:30;4.18;;;1.00;;
4021;SDS011;2025;48.260;16.432;2024-03-23T10:06:00;5.35;;;1.00;;
4021;SDS011;2025;48.260;16.432;2024-03-23T10:08:30;3.25;;;0.60;;
4021;SDS011;2025;48.260;16.432;2024-03-23T10:10:56;5.15;;;1.50;;
4021;SDS011;2025;48.260;16.432;2024-03-23T10:13:24;4.50;;;0.70;;
4021;SDS011;2025;48.260;16.432;2024-03-23T10:15:54;5.55;;;1.02;;
4021;SDS011;2025;48.260;16.432;2024-03-23T10:18:22;4.43;;;1.08;;
4021;SDS011;2025;48.260;16.432;2024-03-23T10:20:50;3.50;;;0.98;;
4021;SDS011;2025;48.260;16.432;2024-03-23T10:23:18;4.38;;;0.98;;
4021;SDS011;2025;48.260;16.432;2024-03-23T10:25:46;5.13;;;1.02;;
4021;SDS011;2025;48.260;16.432;2024-03-23T10:28:13;4.85;;;1.08;;
4021;SDS011;2025;48.260;16.432;2024-03-23T10:30:39;4.45;;;0.80;;
4021;SDS011;2025;48.260;16.432;2024-03-23T10:33:07;4.50;;;1.10;;
4021;SDS011;2025;48.260;16.432;2024-03-23T10:35:33;5.20;;;1.20;;
4021;SDS011;2025;48.260;16.432;2024-03-23T10:38:00;4.15;;;0.90;;
4021;SDS011;2025;48.260;16.432;2024-03-23T10:40:29;4.53;;;1.52;;
4021;SDS011;2025;48.260;16.432;2024-03-23T10:42:58;4.40;;;0.95;;
4021;SDS011;2025;48.260;16.432;2024-03-23T10:45:25;4.57;;;0.80;;
4021;SDS011;2025;48.260;16.432;2024-03-23T10:47:52;4.90;;;1.63;;
4021;SDS011;2025;48.260;16.432;2024-03-23T10:50:18;4.93;;;0.90;;
4021;SDS011;2025;48.260;16.432;2024-03-23T10:52:46;3.47;;;0.95;;
4021;SDS011;2025;48.260;16.432;2024-03-23T10:55:15;4.60;;;0.60;;
4021;SDS011;2025;48.260;16.432;2024-03-23T10:57:44;4.70;;;0.52;;
4021;SDS011;2025;48.260;16.432;2024-03-23T11:00:16;2.85;;;0.40;;
4021;SDS011;2025;48.260;16.432;2024-03-23T11:02:43;3.97;;;0.55;;
4021;SDS011;2025;48.260;16.432;2024-03-23T11:05:28;3.60;;;0.50;;
4021;SDS011;2025;48.260;16.432;2024-03-23T11:07:56;3.63;;;0.45;;
4021;SDS011;2025;48.260;16.432;2024-03-23T11:10:25;3.35;;;0.68;;
4021;SDS011;2025;48.260;16.432;2024-03-23T11:12:54;3.20;;;0.60;;
4021;SDS011;2025;48.260;16.432;2024-03-23T11:15:21;3.50;;;0.57;;
4021;SDS011;2025;48.260;16.432;2024-03-23T11:20:34;3.75;;;0.60;;
4021;SDS011;2025;48.260;16.432;2024-03-23T11:23:02;5.55;;;0.60;;
4021;SDS011;2025;48.260;16.432;2024-03-23T11:25:28;5.13;;;0.52;;
4021;SDS011;2025;48.260;16.432;2024-03-23T11:27:56;5.25;;;0.90;;
4021;SDS011;2025;48.260;16.432;2024-03-23T11:30:25;5.07;;;0.60;;
4021;SDS011;2025;48.260;16.432;2024-03-23T11:32:53;3.92;;;0.50;;
4021;SDS011;2025;48.260;16.432;2024-03-23T11:35:27;3.92;;;0.60;;
4021;SDS011;2025;48.260;16.432;2024-03-23T11:38:03;4.35;;;0.30;;
4021;SDS011;2025;48.260;16.432;2024-03-23T11:40:30;4.18;;;0.30;;
4021;SDS011;2025;48.260;16.432;2024-03-23T11:42:58;4.47;;;0.40;;
4021;SDS011;2025;48.260;16.432;2024-03-23T11:45:26;2.72;;;0.52;;
4021;SDS011;2025;48.260;16.432;2024-03-23T11:48:04;3.13;;;0.68;;
4021;SDS011;2025;48.260;16.432;2024-03-23T11:50:31;5.65;;;0.52;;
4021;SDS011;2025;48.260;16.432;2024-03-23T11:53:08;3.42;;;0.35;;
4021;SDS011;2025;48.260;16.432;2024-03-23T11:55:47;3.28;;;0.63;;
4021;SDS011;2025;48.260;16.432;2024-03-23T11:58:15;2.30;;;0.38;;
4021;SDS011;2025;48.260;16.432;2024-03-23T12:00:48;2.95;;;0.30;;
4021;SDS011;2025;48.260;16.432;2024-03-23T12:03:17;2.78;;;0.32;;
4021;SDS011;2025;48.260;16.432;2024-03-23T12:05:47;6.13;;;0.43;;
4021;SDS011;2025;48.260;16.432;2024-03-23T12:08:16;4.60;;;0.40;;
4021;SDS011;2025;48.260;16.432;2024-03-23T12:10:44;2.25;;;0.32;;
4021;SDS011;2025;48.260;16.432;2024-03-23T12:13:17;2.95;;;0.45;;
4021;SDS011;2025;48.260;16.432;2024-03-23T12:15:46;3.20;;;0.40;;
4021;SDS011;2025;48.260;16.432;2024-03-23T12:18:14;2.42;;;0.20;;
4021;SDS011;2025;48.260;16.432;2024-03-23T12:20:40;3.10;;;0.40;;
4021;SDS011;2025;48.260;16.432;2024-03-23T12:23:09;4.30;;;0.45;;
4021;SDS011;2025;48.260;16.432;2024-03-23T12:25:37;4.90;;;0.50;;
4021;SDS011;2025;48.260;16.432;2024-03-23T12:28:04;3.15;;;0.40;;
4021;SDS011;2025;48.260;16.432;2024-03-23T12:30:34;2.67;;;0.40;;
4021;SDS011;2025;48.260;16.432;2024-03-23T12:33:03;4.55;;;0.57;;
4021;SDS011;2025;48.260;16.432;2024-03-23T12:35:29;4.40;;;0.40;;
4021;SDS011;2025;48.260;16.432;2024-03-23T12:37:57;6.03;;;1.42;;
4021;SDS011;2025;48.260;16.432;2024-03-23T12:40:23;3.05;;;0.50;;
4021;SDS011;2025;48.260;16.432;2024-03-23T12:42:50;2.38;;;0.40;;
4021;SDS011;2025;48.260;16.432;2024-03-23T12:45:17;4.28;;;0.38;;
4021;SDS011;2025;48.260;16.432;2024-03-23T12:47:43;3.80;;;0.40;;
4021;SDS011;2025;48.260;16.432;2024-03-23T12:50:11;4.10;;;0.40;;
4021;SDS011;2025;48.260;16.432;2024-03-23T12:52:37;3.50;;;0.57;;
4021;SDS011;2025;48.260;16.432;2024-03-23T12:55:05;3.13;;;0.30;;
4021;SDS011;2025;48.260;16.432;2024-03-23T12:57:31;4.10;;;0.45;;
4021;SDS011;2025;48.260;16.432;2024-03-23T12:59:59;3.00;;;0.60;;
4021;SDS011;2025;48.260;16.432;2024-03-23T13:02:25;5.20;;;0.73;;
4021;SDS011;2025;48.260;16.432;2024-03-23T13:04:53;7.70;;;0.40;;
4021;SDS011;2025;48.260;16.432;2024-03-23T13:07:21;8.18;;;0.60;;
4021;SDS011;2025;48.260;16.432;2024-03-23T13:09:50;7.03;;;0.40;;
4021;SDS011;2025;48.260;16.432;2024-03-23T13:12:16;5.22;;;0.40;;
4021;SDS011;2025;48.260;16.432;2024-03-23T13:14:44;2.67;;;0.20;;
4021;SDS011;2025;48.260;16.432;2024-03-23T13:17:10;4.43;;;0.43;;
4021;SDS011;2025;48.260;16.432;2024-03-23T13:19:38;2.53;;;0.10;;
4021;SDS011;2025;48.260;16.432;2024-03-23T13:22:04;1.17;;;0.10;;
4021;SDS011;2025;48.260;16.432;2024-03-23T13:24:33;1.95;;;0.20;;
4021;SDS011;2025;48.260;16.432;2024-03-23T13:26:59;2.08;;;0.32;;
4021;SDS011;2025;48.260;16.432;2024-03-23T13:29:26;1.48;;;0.17;;
4021;SDS011;2025;48.260;16.432;2024-03-23T13:31:52;1.08;;;0.10;;
4021;SDS011;2025;48.260;16.432;2024-03-23T13:34:19;2.13;;;0.10;;
4021;SDS011;2025;48.260;16.432;2024-03-23T13:36:46;1.98;;;0.10;;
4021;SDS011;2025;48.260;16.432;2024-03-23T13:39:14;1.40;;;0.10;;
4021;SDS011;2025;48.260;16.432;2024-03-23T13:41:42;3.00;;;0.10;;
4021;SDS011;2025;48.260;16.432;2024-03-23T13:44:11;1.90;;;0.10;;
4021;SDS011;2025;48.260;16.432;2024-03-23T13:46:38;1.50;;;0.10;;
4021;SDS011;2025;48.260;16.432;2024-03-23T13:49:08;1.33;;;0.10;;
4021;SDS011;2025;48.260;16.432;2024-03-23T13:51:50;1.80;;;0.17;;
4021;SDS011;2025;48.260;16.432;2024-03-23T13:54:17;2.00;;;0.25;;
4021;SDS011;2025;48.260;16.432;2024-03-23T13:56:45;2.22;;;0.20;;
4021;SDS011;2025;48.260;16.432;2024-03-23T13:59:12;1.63;;;0.30;;
4021;SDS011;2025;48.260;16.432;2024-03-23T14:01:38;1.13;;;0.10;;
4021;SDS011;2025;48.260;16.432;2024-03-23T14:04:05;1.98;;;0.20;;
4021;SDS011;2025;48.260;16.432;2024-03-23T14:06:32;1.60;;;0.10;;
4021;SDS011;2025;48.260;16.432;2024-03-23T14:09:00;1.92;;;0.10;;
4021;SDS011;2025;48.260;16.432;2024-03-23T14:11:28;1.05;;;0.10;;
4021;SDS011;2025;48.260;16.432;2024-03-23T14:13:57;1.88;;;0.30;;
4021;SDS011;2025;48.260;16.432;2024-03-23T14:16:23;1.50;;;0.20;;
4021;SDS011;2025;48.260;16.432;2024-03-23T14:18:51;3.42;;;0.13;;
4021;SDS011;2025;48.260;16.432;2024-03-23T14:21:18;1.90;;;0.25;;
4021;SDS011;2025;48.260;16.432;2024-03-23T14:23:45;2.72;;;0.38;;
4021;SDS011;2025;48.260;16.432;2024-03-23T14:26:11;2.15;;;0.20;;
4021;SDS011;2025;48.260;16.432;2024-03-23T14:28:39;1.88;;;0.30;;
4021;SDS011;2025;48.260;16.432;2024-03-23T14:31:07;2.92;;;0.57;;
4021;SDS011;2025;48.260;16.432;2024-03-23T14:33:36;2.80;;;0.20;;
4021;SDS011;2025;48.260;16.432;2024-03-23T14:36:03;2.92;;;0.57;;
4021;SDS011;2025;48.260;16.432;2024-03-23T14:38:31;2.38;;;0.32;;
4021;SDS011;2025;48.260;16.432;2024-03-23T14:40:58;3.67;;;0.40;;
4021;SDS011;2025;48.260;16.432;2024-03-23T14:43:28;3.20;;;0.50;;
4021;SDS011;2025;48.260;16.432;2024-03-23T14:46:08;2.10;;;0.25;;
4021;SDS011;2025;48.260;16.432;2024-03-23T14:48:37;2.30;;;0.32;;
4021;SDS011;2025;48.260;16.432;2024-03-23T14:51:04;3.00;;;0.45;;
4021;SDS011;2025;48.260;16.432;2024-03-23T14:53:33;3.03;;;0.50;;
4021;SDS011;2025;48.260;16.432;2024-03-23T14:56:00;4.32;;;0.57;;
4021;SDS011;2025;48.260;16.432;2024-03-23T14:58:27;3.20;;;0.68;;
4021;SDS011;2025;48.260;16.432;2024-03-23T15:00:59;3.13;;;0.60;;
4021;SDS011;2025;48.260;16.432;2024-03-23T15:03:28;2.35;;;0.50;;
4021;SDS011;2025;48.260;16.432;2024-03-23T15:05:55;2.88;;;0.50;;
4021;SDS011;2025;48.260;16.432;2024-03-23T15:08:23;2.45;;;0.32;;
4021;SDS011;2025;48.260;16.432;2024-03-23T15:13:16;2.10;;;0.45;;
4021;SDS011;2025;48.260;16.432;2024-03-23T15:15:42;1.75;;;0.20;;
4021;SDS011;2025;48.260;16.432;2024-03-23T15:18:10;2.25;;;0.30;;
4021;SDS011;2025;48.260;16.432;2024-03-23T15:20:39;2.70;;;0.32;;
4021;SDS011;2025;48.260;16.432;2024-03-23T15:23:06;1.67;;;0.17;;
4021;SDS011;2025;48.260;16.432;2024-03-23T15:25:33;2.97;;;0.30;;
4021;SDS011;2025;48.260;16.432;2024-03-23T15:28:00;1.65;;;0.20;;
4021;SDS011;2025;48.260;16.432;2024-03-23T15:32:54;2.58;;;0.30;;
4021;SDS011;2025;48.260;16.432;2024-03-23T15:35:20;1.20;;;0.13;;
4021;SDS011;2025;48.260;16.432;2024-03-23T15:37:50;1.45;;;0.20;;
4021;SDS011;2025;48.260;16.432;2024-03-23T15:40:18;2.42;;;0.80;;
4021;SDS011;2025;48.260;16.432;2024-03-23T15:42:45;2.25;;;0.20;;
4021;SDS011;2025;48.260;16.432;2024-03-23T15:45:11;2.58;;;0.28;;
4021;SDS011;2025;48.260;16.432;2024-03-23T15:47:38;1.65;;;0.20;;
4021;SDS011;2025;48.260;16.432;2024-03-23T15:50:05;4.15;;;1.60;;
4021;SDS011;2025;48.260;16.432;2024-03-23T15:52:34;3.78;;;0.75;;
4021;SDS011;2025;48.260;16.432;2024-03-23T15:55:02;1.88;;;0.30;;
4021;SDS011;2025;48.260;16.432;2024-03-23T15:57:32;3.47;;;0.30;;
4021;SDS011;2025;48.260;16.432;2024-03-23T15:59:59;2.97;;;0.82;;
4021;SDS011;2025;48.260;16.432;2024-03-23T16:02:26;3.92;;;0.60;;
4021;SDS011;2025;48.260;16.432;2024-03-23T16:04:53;1.77;;;0.30;;
4021;SDS011;2025;48.260;16.432;2024-03-23T16:07:20;2.20;;;0.20;;
4021;SDS011;2025;48.260;16.432;2024-03-23T16:09:46;2.60;;;0.20;;
4021;SDS011;2025;48.260;16.432;2024-03-23T16:12:14;1.15;;;0.15;;
4021;SDS011;2025;48.260;16.432;2024-03-23T16:14:40;0.80;;;0.10;;